createdAt,value
2022-09-20T00:01:34.357Z,11.80
2022-09-20T00:04:06.182Z,11.73
2022-09-20T00:06:34.768Z,11.67
2022-09-20T00:09:04.071Z,11.67
2022-09-20T00:11:34.411Z,11.64
2022-09-20T00:14:03.553Z,11.61
2022-09-20T00:16:34.097Z,11.60
2022-09-20T00:19:05.226Z,11.58
2022-09-20T00:21:35.929Z,11.61
2022-09-20T00:24:04.113Z,11.59
2022-09-20T00:26:31.901Z,11.53
2022-09-20T00:29:02.517Z,11.54
2022-09-20T00:31:30.183Z,11.54
2022-09-20T00:34:17.981Z,11.50
2022-09-20T00:36:46.106Z,11.44
2022-09-20T00:39:15.974Z,11.39
2022-09-20T00:41:43.936Z,11.36
2022-09-20T00:44:49.024Z,11.31
2022-09-20T00:47:41.913Z,11.33
2022-09-20T00:50:29.799Z,11.34
2022-09-20T00:53:04.880Z,11.26
2022-09-20T00:55:34.465Z,11.30
2022-09-20T00:58:02.829Z,11.29
2022-09-20T01:00:30.723Z,11.29
2022-09-20T01:03:02.425Z,11.28
2022-09-20T01:05:30.320Z,11.29
2022-09-20T01:07:58.616Z,11.24
2022-09-20T01:10:26.601Z,11.26
2022-09-20T01:12:55.303Z,11.23
2022-09-20T01:15:24.502Z,11.21
2022-09-20T01:17:54.259Z,11.21
2022-09-20T01:20:24.130Z,11.19
2022-09-20T01:23:29.497Z,11.20
2022-09-20T01:26:27.840Z,11.15
2022-09-20T01:29:08.206Z,11.09
2022-09-20T01:31:42.746Z,11.02
2022-09-20T01:34:18.986Z,11.03
2022-09-20T01:37:12.894Z,11.06
2022-09-20T01:39:55.691Z,11.05
2022-09-20T01:42:32.867Z,10.99
2022-09-20T01:45:07.003Z,10.96
2022-09-20T01:48:10.490Z,10.92
2022-09-20T01:51:03.593Z,10.86
2022-09-20T01:53:37.084Z,10.75
2022-09-20T01:56:07.733Z,10.70
2022-09-20T01:59:22.696Z,10.65
2022-09-20T02:02:09.133Z,10.61
2022-09-20T02:04:51.816Z,10.59
2022-09-20T02:07:46.450Z,10.64
2022-09-20T02:10:24.214Z,10.59
2022-09-20T02:13:00.227Z,10.58
2022-09-20T02:15:46.220Z,10.56
2022-09-20T02:18:46.267Z,10.56
2022-09-20T02:21:35.161Z,10.57
2022-09-20T02:24:37.684Z,10.56
2022-09-20T02:27:23.961Z,10.52
2022-09-20T02:30:16.525Z,10.52
2022-09-20T02:33:05.514Z,10.49
2022-09-20T02:35:43.222Z,10.50
2022-09-20T02:38:28.960Z,10.46
2022-09-20T02:41:21.292Z,10.47
2022-09-20T02:44:13.314Z,10.42
2022-09-20T02:47:01.306Z,10.34
2022-09-20T02:49:53.390Z,10.22
2022-09-20T02:53:06.169Z,10.13
2022-09-20T02:55:48.175Z,10.09
2022-09-20T02:58:21.750Z,10.06
2022-09-20T03:01:00.779Z,10.04
2022-09-20T03:03:56.257Z,10.01
2022-09-20T03:06:51.733Z,9.99
2022-09-20T03:09:29.285Z,9.95
2022-09-20T03:12:32.659Z,9.91
2022-09-20T03:15:18.570Z,9.91
2022-09-20T03:18:13.940Z,9.94
2022-09-20T03:21:01.394Z,9.86
2022-09-20T03:23:56.822Z,9.80
2022-09-20T03:26:38.519Z,9.83
2022-09-20T03:29:43.378Z,9.84
2022-09-20T03:32:17.898Z,9.80
2022-09-20T03:34:52.931Z,9.77
2022-09-20T03:37:36.308Z,9.73
2022-09-20T03:40:22.410Z,9.69
2022-09-20T03:42:53.653Z,9.67
2022-09-20T03:45:21.206Z,9.71
2022-09-20T03:48:00.921Z,9.74
2022-09-20T03:50:50.958Z,9.82
2022-09-20T03:53:34.985Z,9.87
2022-09-20T03:56:24.211Z,9.83
2022-09-20T03:59:01.557Z,9.89
2022-09-20T04:02:13.933Z,9.95
2022-09-20T04:05:00.023Z,10.00
2022-09-20T04:07:27.552Z,9.95
2022-09-20T04:10:14.820Z,9.96
2022-09-20T04:12:57.106Z,9.96
2022-09-20T04:15:37.365Z,9.90
2022-09-20T04:18:44.660Z,9.88
2022-09-20T04:21:24.826Z,9.81
2022-09-20T04:23:55.495Z,9.72
2022-09-20T04:26:48.427Z,9.67
2022-09-20T04:29:41.859Z,9.63
2022-09-20T04:32:25.532Z,9.66
2022-09-20T04:35:22.591Z,9.62
2022-09-20T04:37:51.979Z,9.60
2022-09-20T04:40:45.549Z,9.61
2022-09-20T04:43:28.068Z,9.64
2022-09-20T04:46:41.148Z,9.67
2022-09-20T04:49:36.434Z,9.71
2022-09-20T04:52:05.238Z,9.69
2022-09-20T04:54:35.960Z,9.67
2022-09-20T04:57:09.626Z,9.67
2022-09-20T05:00:05.293Z,9.61
2022-09-20T05:02:54.367Z,9.58
2022-09-20T05:05:45.503Z,9.56
2022-09-20T05:08:49.996Z,9.50
2022-09-20T05:11:35.582Z,9.53
2022-09-20T05:14:25.241Z,9.52
2022-09-20T05:17:17.128Z,9.58
2022-09-20T05:20:06.543Z,9.59
2022-09-20T05:22:43.193Z,9.56
2022-09-20T05:25:39.453Z,9.55
2022-09-20T05:28:44.997Z,9.56
2022-09-20T05:31:16.169Z,9.57
2022-09-20T05:34:03.029Z,9.59
2022-09-20T05:36:57.137Z,9.54
2022-09-20T05:39:50.877Z,9.44
2022-09-20T05:42:25.148Z,9.42
2022-09-20T05:44:59.250Z,9.41
2022-09-20T05:47:47.744Z,9.44
2022-09-20T05:50:39.114Z,9.47
2022-09-20T05:53:27.120Z,9.45
2022-09-20T05:56:19.271Z,9.40
2022-09-20T05:59:31.280Z,9.38
2022-09-20T06:02:01.551Z,9.37
2022-09-20T06:04:38.992Z,9.35
2022-09-20T06:07:33.635Z,9.33
2022-09-20T06:10:25.722Z,9.35
2022-09-20T06:13:25.436Z,9.34
2022-09-20T06:16:00.062Z,9.32
2022-09-20T06:18:27.987Z,9.32
2022-09-20T06:21:24.719Z,9.30
2022-09-20T06:23:58.252Z,9.32
2022-09-20T06:26:30.567Z,9.35
2022-09-20T06:29:04.155Z,9.37
2022-09-20T06:31:31.909Z,9.38
2022-09-20T06:34:04.673Z,9.41
2022-09-20T06:36:53.681Z,9.44
2022-09-20T06:40:04.933Z,9.51
2022-09-20T06:42:32.637Z,9.55
2022-09-20T06:45:00.221Z,9.60
2022-09-20T06:47:28.123Z,9.67
2022-09-20T06:49:56.612Z,9.70
2022-09-20T06:52:24.298Z,9.73
2022-09-20T06:54:54.987Z,9.80
2022-09-20T06:57:35.866Z,9.76
2022-09-20T07:00:03.645Z,9.73
2022-09-20T07:02:31.246Z,9.82
2022-09-20T07:05:00.377Z,9.83
2022-09-20T07:07:28.121Z,9.87
2022-09-20T07:09:55.766Z,9.91
2022-09-20T07:12:23.394Z,9.99
2022-09-20T07:14:51.670Z,10.01
2022-09-20T07:17:19.253Z,10.02
2022-09-20T07:19:46.913Z,10.09
2022-09-20T07:22:15.604Z,10.03
2022-09-20T07:24:43.275Z,10.00
2022-09-20T07:27:12.910Z,9.97
2022-09-20T07:29:42.189Z,10.02
2022-09-20T07:32:09.886Z,10.04
2022-09-20T07:34:37.482Z,10.10
2022-09-20T07:37:05.216Z,10.15
2022-09-20T07:39:32.899Z,10.23
2022-09-20T07:42:00.517Z,10.31
2022-09-20T07:44:29.058Z,10.36
2022-09-20T07:47:01.954Z,10.38
2022-09-20T07:49:33.498Z,10.42
2022-09-20T07:52:01.111Z,10.49
2022-09-20T07:54:29.337Z,10.55
2022-09-20T07:56:57.406Z,10.62
2022-09-20T07:59:25.472Z,10.65
2022-09-20T08:01:53.180Z,10.69
2022-09-20T08:04:20.873Z,10.75
2022-09-20T08:06:48.522Z,10.83
2022-09-20T08:09:16.342Z,10.92
2022-09-20T08:11:44.833Z,11.00
2022-09-20T08:14:17.071Z,11.07
2022-09-20T08:16:48.273Z,11.17
2022-09-20T08:19:24.179Z,11.24
2022-09-20T08:21:55.047Z,11.31
2022-09-20T08:24:22.962Z,11.41
2022-09-20T08:26:50.574Z,11.54
2022-09-20T08:29:18.927Z,11.57
2022-09-20T08:31:47.533Z,11.64
2022-09-20T08:34:18.083Z,11.66
2022-09-20T08:36:48.087Z,11.75
2022-09-20T08:42:21.090Z,11.93
2022-09-20T08:45:01.166Z,12.04
2022-09-20T08:47:45.682Z,12.12
2022-09-20T08:50:18.140Z,12.23
2022-09-20T08:52:49.559Z,12.28
2022-09-20T08:55:37.068Z,12.36
2022-09-20T08:58:08.750Z,12.49
2022-09-20T09:00:38.240Z,12.60
2022-09-20T09:03:11.869Z,12.70
2022-09-20T09:05:47.025Z,12.74
2022-09-20T09:08:28.311Z,12.88
2022-09-20T09:10:59.508Z,12.95
2022-09-20T09:13:54.322Z,12.98
2022-09-20T09:16:31.825Z,13.01
2022-09-20T09:19:33.948Z,13.12
2022-09-20T09:22:04.437Z,13.22
2022-09-20T09:24:32.609Z,13.26
2022-09-20T09:27:17.420Z,13.31
2022-09-20T09:29:55.513Z,13.40
2022-09-20T09:32:29.584Z,13.48
2022-09-20T09:34:58.442Z,13.57
2022-09-20T09:37:30.117Z,13.68
2022-09-20T09:40:27.627Z,13.76
2022-09-20T09:43:01.578Z,13.78
2022-09-20T09:45:39.520Z,13.75
2022-09-20T09:48:28.587Z,13.75
2022-09-20T09:51:12.709Z,13.68
2022-09-20T09:53:40.844Z,13.68
2022-09-20T09:56:14.433Z,13.70
2022-09-20T09:58:51.107Z,13.71
2022-09-20T10:01:33.551Z,13.72
2022-09-20T10:04:24.018Z,13.70
2022-09-20T10:07:06.179Z,13.69
2022-09-20T10:10:10.638Z,13.67
2022-09-20T10:13:05.248Z,13.69
2022-09-20T10:15:35.918Z,13.71
2022-09-20T10:18:25.263Z,13.72
2022-09-20T10:21:45.145Z,13.80
2022-09-20T10:24:32.090Z,13.98
2022-09-20T10:27:27.514Z,14.10
2022-09-20T10:30:18.469Z,14.24
2022-09-20T10:33:16.067Z,14.38
2022-09-20T10:36:08.936Z,14.47
2022-09-20T10:38:36.475Z,14.55
2022-09-20T10:41:41.609Z,14.57
2022-09-20T10:44:19.399Z,14.56
2022-09-20T10:47:14.985Z,14.60
2022-09-20T10:50:06.182Z,14.67
2022-09-20T10:52:50.365Z,14.76
2022-09-20T10:55:42.858Z,14.88
2022-09-20T10:58:29.037Z,14.95
2022-09-20T11:00:56.640Z,15.00
2022-09-20T11:03:38.175Z,15.03
2022-09-20T11:06:23.217Z,15.07
2022-09-20T11:08:56.840Z,15.17
2022-09-20T11:11:36.869Z,15.27
2022-09-20T11:14:12.252Z,15.29
2022-09-20T11:16:55.139Z,15.32
2022-09-20T11:19:32.428Z,15.37
2022-09-20T11:22:03.189Z,15.39
2022-09-20T11:24:39.327Z,15.42
2022-09-20T11:27:15.298Z,15.44
2022-09-20T11:29:51.735Z,15.46
2022-09-20T11:32:26.142Z,15.53
2022-09-20T11:35:03.009Z,15.57
2022-09-20T11:37:45.757Z,15.53
2022-09-20T11:40:26.178Z,15.56
2022-09-20T11:42:55.978Z,15.57
2022-09-20T11:45:28.345Z,15.58
2022-09-20T11:48:03.776Z,15.65
2022-09-20T11:51:13.813Z,15.65
2022-09-20T11:54:17.196Z,15.65
2022-09-20T11:56:57.613Z,15.63
2022-09-20T11:59:57.537Z,15.63
2022-09-20T12:02:36.489Z,15.60
2022-09-20T12:05:08.885Z,15.65
2022-09-20T12:07:40.875Z,15.67
2022-09-20T12:10:21.501Z,15.68
2022-09-20T12:12:55.924Z,15.63
2022-09-20T12:15:42.130Z,15.63
2022-09-20T12:18:34.926Z,15.65
2022-09-20T12:21:17.612Z,15.65
2022-09-20T12:23:58.264Z,15.66
2022-09-20T12:26:28.799Z,15.58
2022-09-20T12:28:59.896Z,15.58
2022-09-20T12:31:30.181Z,15.57
2022-09-20T12:34:00.271Z,15.58
2022-09-20T12:36:35.325Z,15.54
2022-09-20T12:39:07.795Z,15.53
2022-09-20T12:41:58.881Z,15.51
2022-09-20T12:44:32.681Z,15.47
2022-09-20T12:47:11.440Z,15.47
2022-09-20T12:50:07.056Z,15.51
2022-09-20T12:52:56.942Z,15.60
2022-09-20T12:55:31.091Z,15.62
2022-09-20T12:58:07.723Z,15.65
2022-09-20T13:00:49.024Z,15.65
2022-09-20T13:03:16.576Z,15.69
2022-09-20T13:05:49.279Z,15.73
2022-09-20T13:08:21.774Z,15.73
2022-09-20T13:10:59.233Z,15.73
2022-09-20T13:13:33.370Z,15.76
2022-09-20T13:16:03.108Z,15.77
2022-09-20T13:18:31.337Z,15.83
2022-09-20T13:21:07.452Z,15.87
2022-09-20T13:23:46.665Z,15.89
2022-09-20T13:26:16.585Z,15.91
2022-09-20T13:28:50.747Z,15.96
2022-09-20T13:31:21.357Z,15.96
2022-09-20T13:33:49.677Z,16.00
2022-09-20T13:36:29.307Z,15.98
2022-09-20T13:38:59.061Z,15.97
2022-09-20T13:41:30.318Z,15.97
2022-09-20T13:43:58.521Z,15.96
2022-09-20T13:46:35.304Z,15.95
2022-09-20T13:49:12.399Z,15.96
2022-09-20T13:51:40.096Z,15.96
2022-09-20T13:54:31.129Z,15.97
2022-09-20T13:57:04.438Z,15.94
2022-09-20T13:59:41.717Z,15.95
2022-09-20T14:02:30.686Z,15.93
2022-09-20T14:05:01.546Z,15.95
2022-09-20T14:07:30.703Z,15.94
2022-09-20T14:09:59.960Z,15.95
2022-09-20T14:12:28.534Z,15.92
2022-09-20T14:14:56.942Z,15.93
2022-09-20T14:17:25.830Z,15.90
2022-09-20T14:19:55.769Z,15.93
2022-09-20T14:22:30.673Z,15.88
2022-09-20T14:25:22.577Z,15.87
2022-09-20T14:28:05.003Z,15.90
2022-09-20T14:30:37.540Z,15.90
2022-09-20T14:33:08.337Z,15.90
2022-09-20T14:35:36.094Z,15.91
2022-09-20T14:38:09.643Z,15.86
2022-09-20T14:40:47.087Z,15.85
2022-09-20T14:43:27.070Z,15.84
2022-09-20T14:45:58.316Z,15.83
2022-09-20T14:48:25.948Z,15.83
2022-09-20T14:51:28.740Z,15.85
2022-09-20T14:54:05.354Z,15.83
2022-09-20T14:56:38.893Z,15.78
2022-09-20T14:59:10.396Z,15.76
2022-09-20T15:01:42.415Z,15.73
2022-09-20T15:04:18.788Z,15.71
2022-09-20T15:06:46.506Z,15.71
2022-09-20T15:09:14.675Z,15.69
2022-09-20T15:11:42.428Z,15.66
2022-09-20T15:14:10.056Z,15.62
2022-09-20T15:16:37.979Z,15.62
2022-09-20T15:19:07.136Z,15.59
2022-09-20T15:21:34.881Z,15.58
2022-09-20T15:24:02.745Z,15.56
2022-09-20T15:26:32.578Z,15.55
2022-09-20T15:29:01.183Z,15.51
2022-09-20T15:31:29.869Z,15.52
2022-09-20T15:33:57.508Z,15.49
2022-09-20T15:36:25.096Z,15.44
2022-09-20T15:38:54.922Z,15.43
2022-09-20T15:41:22.604Z,15.42
2022-09-20T15:43:51.378Z,15.42
2022-09-20T15:46:23.980Z,15.40
2022-09-20T15:48:51.664Z,15.38
2022-09-20T15:51:19.262Z,15.35
2022-09-20T15:53:50.534Z,15.31
2022-09-20T15:56:23.603Z,15.27
2022-09-20T15:58:53.380Z,15.26
2022-09-20T16:01:21.074Z,15.21
2022-09-20T16:03:50.098Z,15.20
2022-09-20T16:06:17.908Z,15.17
2022-09-20T16:08:45.658Z,15.15
2022-09-20T16:11:22.415Z,15.12
2022-09-20T16:13:55.281Z,15.13
2022-09-20T16:16:23.494Z,15.14
2022-09-20T16:19:10.081Z,15.17
2022-09-20T16:21:40.598Z,15.18
2022-09-20T16:24:09.226Z,15.18
2022-09-20T16:26:37.684Z,15.18
2022-09-20T16:29:06.160Z,15.15
2022-09-20T16:31:43.001Z,15.13
2022-09-20T16:34:22.612Z,15.08
2022-09-20T16:36:52.559Z,15.03
2022-09-20T16:39:21.774Z,14.99
2022-09-20T16:41:49.954Z,14.93
2022-09-20T16:44:17.643Z,14.91
2022-09-20T16:46:46.340Z,14.87
2022-09-20T16:49:14.617Z,14.86
2022-09-20T16:51:43.990Z,14.81
2022-09-20T16:54:14.343Z,14.78
2022-09-20T16:56:47.470Z,14.74
2022-09-20T16:59:16.997Z,14.70
2022-09-20T17:01:45.851Z,14.64
2022-09-20T17:04:15.352Z,14.57
2022-09-20T17:06:44.514Z,14.53
2022-09-20T17:09:13.315Z,14.50
2022-09-20T17:11:47.037Z,14.46
2022-09-20T17:14:16.033Z,14.43
2022-09-20T17:16:44.701Z,14.41
2022-09-20T17:19:14.277Z,14.37
2022-09-20T17:21:44.842Z,14.34
2022-09-20T17:24:13.208Z,14.30
2022-09-20T17:26:43.087Z,14.28
2022-09-20T17:29:11.911Z,14.27
2022-09-20T17:31:43.119Z,14.24
2022-09-20T17:34:12.728Z,14.22
2022-09-20T17:36:43.442Z,14.18
2022-09-20T17:39:13.346Z,14.17
2022-09-20T17:41:42.869Z,14.14
2022-09-20T17:44:11.207Z,14.13
2022-09-20T17:46:41.117Z,14.11
2022-09-20T17:49:11.320Z,14.07
2022-09-20T17:51:41.233Z,14.05
2022-09-20T17:54:09.599Z,14.01
2022-09-20T17:56:37.384Z,13.99
2022-09-20T17:59:06.754Z,13.98
2022-09-20T18:01:36.485Z,13.94
2022-09-20T18:04:05.700Z,13.94
2022-09-20T18:06:43.293Z,13.91
2022-09-20T18:09:13.102Z,13.90
2022-09-20T18:11:50.516Z,13.88
2022-09-20T18:14:21.610Z,13.85
2022-09-20T18:16:49.224Z,13.84
2022-09-20T18:19:17.715Z,13.80
2022-09-20T18:21:45.348Z,13.78
2022-09-20T18:24:13.194Z,13.78
2022-09-20T18:26:41.483Z,13.73
2022-09-20T18:29:14.387Z,13.72
2022-09-20T18:31:47.770Z,13.67
2022-09-20T18:34:18.919Z,13.62
2022-09-20T18:36:53.934Z,13.60
2022-09-20T18:39:23.181Z,13.54
2022-09-20T18:41:51.813Z,13.52
2022-09-20T18:44:20.212Z,13.48
2022-09-20T18:46:48.268Z,13.35
2022-09-20T18:49:17.876Z,13.24
2022-09-20T18:51:46.614Z,13.18
2022-09-20T18:54:14.298Z,13.15
2022-09-20T18:56:43.897Z,13.08
2022-09-20T18:59:23.586Z,13.03
2022-09-20T19:02:06.949Z,12.96
2022-09-20T19:05:07.890Z,12.93
2022-09-20T19:07:40.889Z,12.91
2022-09-20T19:10:08.468Z,12.87
2022-09-20T19:12:58.138Z,12.80
2022-09-20T19:15:44.511Z,12.78
2022-09-20T19:18:39.957Z,12.76
2022-09-20T19:21:19.407Z,12.74
2022-09-20T19:23:53.043Z,12.76
2022-09-20T19:26:22.964Z,12.75
2022-09-20T19:28:56.349Z,12.75
2022-09-20T19:31:30.330Z,12.74
2022-09-20T19:34:00.502Z,12.76
2022-09-20T19:36:46.029Z,12.76
2022-09-20T19:39:40.889Z,12.73
2022-09-20T19:42:25.663Z,12.74
2022-09-20T19:45:20.177Z,12.74
2022-09-20T19:48:17.826Z,12.75
2022-09-20T19:50:49.642Z,12.76
2022-09-20T19:53:19.715Z,12.80
2022-09-20T19:55:51.154Z,12.84
2022-09-20T19:58:19.172Z,12.83
2022-09-20T20:00:48.468Z,12.81
2022-09-20T20:03:17.028Z,12.79
2022-09-20T20:05:58.328Z,12.77
2022-09-20T20:08:38.656Z,12.76
2022-09-20T20:11:24.718Z,12.77
2022-09-20T20:14:31.892Z,12.76
2022-09-20T20:17:34.478Z,12.74
2022-09-20T20:20:27.536Z,12.75
2022-09-20T20:23:20.686Z,12.77
2022-09-20T20:25:48.575Z,12.80
2022-09-20T20:28:16.287Z,12.81
2022-09-20T20:30:44.141Z,12.80
2022-09-20T20:33:16.556Z,12.82
2022-09-20T20:35:44.171Z,12.81
2022-09-20T20:38:12.840Z,12.77
2022-09-20T20:40:42.639Z,12.77
2022-09-20T20:43:10.827Z,12.76
2022-09-20T20:45:39.836Z,12.76
2022-09-20T20:48:07.672Z,12.78
2022-09-20T20:50:36.457Z,12.79
2022-09-20T20:53:04.173Z,12.80
2022-09-20T20:55:32.370Z,12.81
2022-09-20T20:58:00.737Z,12.79
2022-09-20T21:00:29.052Z,12.80
2022-09-20T21:03:02.487Z,12.80
2022-09-20T21:05:30.658Z,12.77
2022-09-20T21:07:59.643Z,12.76
2022-09-20T21:10:27.278Z,12.73
2022-09-20T21:12:55.577Z,12.69
2022-09-20T21:15:23.328Z,12.62
2022-09-20T21:17:52.577Z,12.61
2022-09-20T21:20:21.260Z,12.54
2022-09-20T21:22:48.934Z,12.54
2022-09-20T21:25:16.657Z,12.55
2022-09-20T21:27:44.269Z,12.57
2022-09-20T21:30:12.917Z,12.55
2022-09-20T21:32:40.565Z,12.54
2022-09-20T21:35:08.549Z,12.51
2022-09-20T21:37:36.258Z,12.48
2022-09-20T21:40:03.988Z,12.46
2022-09-20T21:42:31.612Z,12.45
2022-09-20T21:44:59.293Z,12.46
2022-09-20T21:47:27.260Z,12.46
2022-09-20T21:49:54.927Z,12.48
2022-09-20T21:52:22.702Z,12.48
2022-09-20T21:54:50.774Z,12.50
2022-09-20T21:57:18.949Z,12.49
2022-09-20T21:59:46.566Z,12.49
2022-09-20T22:02:14.276Z,12.51
2022-09-20T22:04:41.869Z,12.49
2022-09-20T22:07:10.197Z,12.46
2022-09-20T22:09:37.845Z,12.44
2022-09-20T22:12:05.545Z,12.42
2022-09-20T22:14:33.219Z,12.42
2022-09-20T22:17:01.356Z,12.42
2022-09-20T22:19:29.062Z,12.39
2022-09-20T22:21:56.722Z,12.41
2022-09-20T22:24:24.947Z,12.42
2022-09-20T22:26:52.774Z,12.40
2022-09-20T22:29:21.102Z,12.41
2022-09-20T22:31:51.098Z,12.42
2022-09-20T22:34:21.221Z,12.41
2022-09-20T22:36:49.152Z,12.44
2022-09-20T22:39:17.412Z,12.45
2022-09-20T22:41:45.624Z,12.45
2022-09-20T22:44:13.242Z,12.39
2022-09-20T22:46:41.134Z,12.38
2022-09-20T22:49:10.319Z,12.36
2022-09-20T22:51:38.655Z,12.36
2022-09-20T22:54:08.649Z,12.34
2022-09-20T22:56:37.388Z,12.35
2022-09-20T22:59:07.681Z,12.34
2022-09-20T23:01:42.564Z,12.30
2022-09-20T23:04:15.839Z,12.28
2022-09-20T23:06:48.138Z,12.27
2022-09-20T23:09:18.859Z,12.26
2022-09-20T23:11:47.271Z,12.24
2022-09-20T23:14:20.034Z,12.22
2022-09-20T23:16:48.597Z,12.19
2022-09-20T23:19:16.403Z,12.17
2022-09-20T23:21:45.076Z,12.17
2022-09-20T23:24:14.962Z,12.15
2022-09-20T23:26:44.033Z,12.15
2022-09-20T23:29:16.912Z,12.18
2022-09-20T23:31:47.103Z,12.16
2022-09-20T23:34:16.147Z,12.16
2022-09-20T23:36:44.685Z,12.14
2022-09-20T23:39:13.337Z,12.11
2022-09-20T23:41:43.992Z,12.08
2022-09-20T23:44:14.994Z,12.08
2022-09-20T23:46:42.621Z,12.07
2022-09-20T23:49:10.453Z,12.04
2022-09-20T23:51:38.506Z,12.01
2022-09-20T23:54:06.731Z,12.02
2022-09-20T23:56:34.824Z,11.96
2022-09-20T23:59:02.494Z,11.98
